sensor_id;sensor_type;location;lat;lon;timestamp;temperature;humidity
10566;DHT22;5331;48.148;16.326;2023-03-01T00:01:40;-1.20;1.00
10566;DHT22;5331;48.148;16.326;2023-03-01T00:04:07;-1.20;1.00
10566;DHT22;5331;48.148;16.326;2023-03-01T00:06:34;-1.20;1.00
10566;DHT22;5331;48.148;16.326;2023-03-01T00:09:01;-1.20;1.00
10566;DHT22;5331;48.148;16.326;2023-03-01T00:11:30;-1.20;1.00
10566;DHT22;5331;48.148;16.326;2023-03-01T00:14:00;-1.20;1.00
10566;DHT22;5331;48.148;16.326;2023-03-01T00:16:29;-1.30;1.00
10566;DHT22;5331;48.148;16.326;2023-03-01T00:18:57;-1.30;1.00
10566;DHT22;5331;48.148;16.326;2023-03-01T00:21:25;-1.30;1.00
10566;DHT22;5331;48.148;16.326;2023-03-01T00:23:53;-1.30;1.00
10566;DHT22;5331;48.148;16.326;2023-03-01T00:26:21;-1.30;1.00
10566;DHT22;5331;48.148;16.326;2023-03-01T00:28:49;-1.30;1.00
10566;DHT22;5331;48.148;16.326;2023-03-01T00:31:19;-1.40;1.00
10566;DHT22;5331;48.148;16.326;2023-03-01T00:33:47;-1.40;1.00
10566;DHT22;5331;48.148;16.326;2023-03-01T00:36:15;-1.50;1.00
10566;DHT22;5331;48.148;16.326;2023-03-01T00:38:43;-1.50;1.00
10566;DHT22;5331;48.148;16.326;2023-03-01T00:41:13;-1.50;1.00
10566;DHT22;5331;48.148;16.326;2023-03-01T00:43:41;-1.50;1.00
10566;DHT22;5331;48.148;16.326;2023-03-01T00:46:09;-1.50;1.00
10566;DHT22;5331;48.148;16.326;2023-03-01T00:48:38;-1.50;1.00
10566;DHT22;5331;48.148;16.326;2023-03-01T00:51:06;-1.50;1.00
10566;DHT22;5331;48.148;16.326;2023-03-01T00:53:33;-1.60;1.00
10566;DHT22;5331;48.148;16.326;2023-03-01T00:56:01;-1.60;1.00
10566;DHT22;5331;48.148;16.326;2023-03-01T00:58:29;-1.60;1.00
10566;DHT22;5331;48.148;16.326;2023-03-01T01:00:56;-1.60;1.00
10566;DHT22;5331;48.148;16.326;2023-03-01T01:03:23;-1.60;1.00
10566;DHT22;5331;48.148;16.326;2023-03-01T01:05:52;-1.60;1.00
10566;DHT22;5331;48.148;16.326;2023-03-01T01:08:19;-1.60;1.00
10566;DHT22;5331;48.148;16.326;2023-03-01T01:10:46;-1.70;1.00
10566;DHT22;5331;48.148;16.326;2023-03-01T01:13:13;-1.70;1.00
10566;DHT22;5331;48.148;16.326;2023-03-01T01:15:40;-1.70;1.00
10566;DHT22;5331;48.148;16.326;2023-03-01T01:18:07;-1.70;1.00
10566;DHT22;5331;48.148;16.326;2023-03-01T01:20:35;-1.70;1.00
10566;DHT22;5331;48.148;16.326;2023-03-01T01:23:05;-1.70;1.00
10566;DHT22;5331;48.148;16.326;2023-03-01T01:25:34;-1.70;1.00
10566;DHT22;5331;48.148;16.326;2023-03-01T01:28:01;-1.70;1.00
10566;DHT22;5331;48.148;16.326;2023-03-01T01:30:28;-1.70;1.00
10566;DHT22;5331;48.148;16.326;2023-03-01T01:32:55;-1.70;1.00
10566;DHT22;5331;48.148;16.326;2023-03-01T01:35:22;-1.70;1.00
10566;DHT22;5331;48.148;16.326;2023-03-01T01:37:49;-1.60;1.00
10566;DHT22;5331;48.148;16.326;2023-03-01T01:40:17;-1.60;1.00
10566;DHT22;5331;48.148;16.326;2023-03-01T01:42:44;-1.60;1.00
10566;DHT22;5331;48.148;16.326;2023-03-01T01:45:34;-1.50;1.00
10566;DHT22;5331;48.148;16.326;2023-03-01T01:48:04;-1.50;1.00
10566;DHT22;5331;48.148;16.326;2023-03-01T01:50:33;-1.40;1.00
10566;DHT22;5331;48.148;16.326;2023-03-01T01:53:08;-1.40;1.00
10566;DHT22;5331;48.148;16.326;2023-03-01T01:55:40;-1.30;1.00
10566;DHT22;5331;48.148;16.326;2023-03-01T01:58:09;-1.30;1.00
10566;DHT22;5331;48.148;16.326;2023-03-01T02:00:38;-1.30;1.00
10566;DHT22;5331;48.148;16.326;2023-03-01T02:03:09;-1.30;1.00
10566;DHT22;5331;48.148;16.326;2023-03-01T02:05:42;-1.20;1.00
10566;DHT22;5331;48.148;16.326;2023-03-01T02:08:13;-1.20;1.00
10566;DHT22;5331;48.148;16.326;2023-03-01T02:10:42;-1.10;1.00
10566;DHT22;5331;48.148;16.326;2023-03-01T02:13:09;-1.10;1.00
10566;DHT22;5331;48.148;16.326;2023-03-01T02:15:39;-1.10;1.00
10566;DHT22;5331;48.148;16.326;2023-03-01T02:18:07;-1.00;1.00
10566;DHT22;5331;48.148;16.326;2023-03-01T02:20:40;-1.00;1.00
10566;DHT22;5331;48.148;16.326;2023-03-01T02:23:11;-1.00;1.00
10566;DHT22;5331;48.148;16.326;2023-03-01T02:25:46;-1.00;1.00
10566;DHT22;5331;48.148;16.326;2023-03-01T02:28:24;-0.90;1.00
10566;DHT22;5331;48.148;16.326;2023-03-01T02:30:53;-0.90;1.00
10566;DHT22;5331;48.148;16.326;2023-03-01T02:33:41;-0.90;1.00
10566;DHT22;5331;48.148;16.326;2023-03-01T02:36:12;-0.80;1.00
10566;DHT22;5331;48.148;16.326;2023-03-01T02:38:40;-0.80;1.00
10566;DHT22;5331;48.148;16.326;2023-03-01T02:41:08;-0.80;1.00
10566;DHT22;5331;48.148;16.326;2023-03-01T02:43:37;-0.80;1.00
10566;DHT22;5331;48.148;16.326;2023-03-01T02:46:05;-0.70;1.00
10566;DHT22;5331;48.148;16.326;2023-03-01T02:48:44;-0.70;1.00
10566;DHT22;5331;48.148;16.326;2023-03-01T02:51:24;-0.70;1.00
10566;DHT22;5331;48.148;16.326;2023-03-01T02:54:00;-0.70;1.00
10566;DHT22;5331;48.148;16.326;2023-03-01T02:56:29;-0.60;1.00
10566;DHT22;5331;48.148;16.326;2023-03-01T02:58:58;-0.60;1.00
10566;DHT22;5331;48.148;16.326;2023-03-01T03:01:26;-0.60;1.00
10566;DHT22;5331;48.148;16.326;2023-03-01T03:04:02;-0.60;1.00
10566;DHT22;5331;48.148;16.326;2023-03-01T03:06:29;-0.50;1.00
10566;DHT22;5331;48.148;16.326;2023-03-01T03:09:05;-0.50;1.00
10566;DHT22;5331;48.148;16.326;2023-03-01T03:11:33;-0.50;1.00
10566;DHT22;5331;48.148;16.326;2023-03-01T03:14:03;-0.40;1.00
10566;DHT22;5331;48.148;16.326;2023-03-01T03:16:30;-0.40;1.00
10566;DHT22;5331;48.148;16.326;2023-03-01T03:18:57;-0.40;1.00
10566;DHT22;5331;48.148;16.326;2023-03-01T03:21:30;-0.40;1.00
10566;DHT22;5331;48.148;16.326;2023-03-01T03:23:58;-0.30;1.00
10566;DHT22;5331;48.148;16.326;2023-03-01T03:26:25;-0.30;1.00
10566;DHT22;5331;48.148;16.326;2023-03-01T03:28:52;-0.30;1.00
10566;DHT22;5331;48.148;16.326;2023-03-01T03:31:20;-0.30;1.00
10566;DHT22;5331;48.148;16.326;2023-03-01T03:33:47;-0.30;1.00
10566;DHT22;5331;48.148;16.326;2023-03-01T03:36:15;-0.20;1.00
10566;DHT22;5331;48.148;16.326;2023-03-01T03:38:43;-0.20;1.00
10566;DHT22;5331;48.148;16.326;2023-03-01T03:41:12;-0.10;1.00
10566;DHT22;5331;48.148;16.326;2023-03-01T03:43:40;-0.10;1.00
10566;DHT22;5331;48.148;16.326;2023-03-01T03:46:09;0.00;1.00
10566;DHT22;5331;48.148;16.326;2023-03-01T03:48:38;0.00;1.00
10566;DHT22;5331;48.148;16.326;2023-03-01T03:51:06;0.10;1.00
10566;DHT22;5331;48.148;16.326;2023-03-01T03:53:33;0.00;1.00
10566;DHT22;5331;48.148;16.326;2023-03-01T03:56:00;0.10;1.00
10566;DHT22;5331;48.148;16.326;2023-03-01T03:58:27;0.10;1.00
10566;DHT22;5331;48.148;16.326;2023-03-01T04:00:55;0.10;1.00
10566;DHT22;5331;48.148;16.326;2023-03-01T04:03:25;0.10;1.00
10566;DHT22;5331;48.148;16.326;2023-03-01T04:05:54;0.20;1.00
10566;DHT22;5331;48.148;16.326;2023-03-01T04:08:22;0.20;1.00
10566;DHT22;5331;48.148;16.326;2023-03-01T04:10:50;0.20;1.00
10566;DHT22;5331;48.148;16.326;2023-03-01T04:13:20;0.20;1.00
10566;DHT22;5331;48.148;16.326;2023-03-01T04:15:48;0.20;1.00
10566;DHT22;5331;48.148;16.326;2023-03-01T04:18:16;0.30;1.00
10566;DHT22;5331;48.148;16.326;2023-03-01T04:20:44;0.30;1.00
10566;DHT22;5331;48.148;16.326;2023-03-01T04:23:14;0.30;1.00
10566;DHT22;5331;48.148;16.326;2023-03-01T04:25:46;0.30;1.00
10566;DHT22;5331;48.148;16.326;2023-03-01T04:28:15;0.40;1.00
10566;DHT22;5331;48.148;16.326;2023-03-01T04:30:42;0.40;1.00
10566;DHT22;5331;48.148;16.326;2023-03-01T04:33:10;0.40;1.00
10566;DHT22;5331;48.148;16.326;2023-03-01T04:35:37;0.40;1.00
10566;DHT22;5331;48.148;16.326;2023-03-01T04:38:06;0.40;1.00
10566;DHT22;5331;48.148;16.326;2023-03-01T04:40:34;0.40;1.00
10566;DHT22;5331;48.148;16.326;2023-03-01T04:43:02;0.40;1.00
10566;DHT22;5331;48.148;16.326;2023-03-01T04:45:32;0.40;1.00
10566;DHT22;5331;48.148;16.326;2023-03-01T04:48:00;0.40;1.00
10566;DHT22;5331;48.148;16.326;2023-03-01T04:50:27;0.40;1.00
10566;DHT22;5331;48.148;16.326;2023-03-01T04:52:55;0.40;1.00
10566;DHT22;5331;48.148;16.326;2023-03-01T04:55:24;0.50;1.00
10566;DHT22;5331;48.148;16.326;2023-03-01T04:57:54;0.50;1.00
10566;DHT22;5331;48.148;16.326;2023-03-01T05:00:22;0.50;1.00
10566;DHT22;5331;48.148;16.326;2023-03-01T05:02:51;0.50;1.00
10566;DHT22;5331;48.148;16.326;2023-03-01T05:05:25;0.50;1.00
10566;DHT22;5331;48.148;16.326;2023-03-01T05:07:54;0.50;1.00
10566;DHT22;5331;48.148;16.326;2023-03-01T05:10:21;0.50;1.00
10566;DHT22;5331;48.148;16.326;2023-03-01T05:12:48;0.50;1.00
10566;DHT22;5331;48.148;16.326;2023-03-01T05:15:16;0.50;1.00
10566;DHT22;5331;48.148;16.326;2023-03-01T05:17:43;0.50;1.00
10566;DHT22;5331;48.148;16.326;2023-03-01T05:20:11;0.50;1.00
10566;DHT22;5331;48.148;16.326;2023-03-01T05:22:38;0.50;1.00
10566;DHT22;5331;48.148;16.326;2023-03-01T05:25:06;0.60;1.00
10566;DHT22;5331;48.148;16.326;2023-03-01T05:27:34;0.60;1.00
10566;DHT22;5331;48.148;16.326;2023-03-01T05:30:01;0.50;1.00
10566;DHT22;5331;48.148;16.326;2023-03-01T05:32:41;0.60;1.00
10566;DHT22;5331;48.148;16.326;2023-03-01T05:35:10;0.60;1.00
10566;DHT22;5331;48.148;16.326;2023-03-01T05:37:40;0.60;1.00
10566;DHT22;5331;48.148;16.326;2023-03-01T05:40:09;0.60;1.00
10566;DHT22;5331;48.148;16.326;2023-03-01T05:42:45;0.60;1.00
10566;DHT22;5331;48.148;16.326;2023-03-01T05:45:13;0.60;1.00
10566;DHT22;5331;48.148;16.326;2023-03-01T05:47:42;0.70;1.00
10566;DHT22;5331;48.148;16.326;2023-03-01T05:50:14;0.70;1.00
10566;DHT22;5331;48.148;16.326;2023-03-01T05:52:45;0.70;1.00
10566;DHT22;5331;48.148;16.326;2023-03-01T05:55:12;0.70;1.00
10566;DHT22;5331;48.148;16.326;2023-03-01T05:57:39;0.70;1.00
10566;DHT22;5331;48.148;16.326;2023-03-01T06:00:07;0.70;1.00
10566;DHT22;5331;48.148;16.326;2023-03-01T06:02:35;0.70;1.00
10566;DHT22;5331;48.148;16.326;2023-03-01T06:05:06;0.70;1.00
10566;DHT22;5331;48.148;16.326;2023-03-01T06:07:33;0.80;1.00
10566;DHT22;5331;48.148;16.326;2023-03-01T06:10:00;0.90;1.00
10566;DHT22;5331;48.148;16.326;2023-03-01T06:12:30;0.80;1.00
10566;DHT22;5331;48.148;16.326;2023-03-01T06:14:57;0.90;1.00
10566;DHT22;5331;48.148;16.326;2023-03-01T06:17:24;0.90;1.00
10566;DHT22;5331;48.148;16.326;2023-03-01T06:23:14;0.90;1.00
10566;DHT22;5331;48.148;16.326;2023-03-01T06:25:41;0.90;1.00
10566;DHT22;5331;48.148;16.326;2023-03-01T06:28:08;1.00;1.00
10566;DHT22;5331;48.148;16.326;2023-03-01T06:30:35;1.00;1.00
10566;DHT22;5331;48.148;16.326;2023-03-01T06:33:02;1.00;1.00
10566;DHT22;5331;48.148;16.326;2023-03-01T06:35:29;1.00;1.00
10566;DHT22;5331;48.148;16.326;2023-03-01T06:37:58;1.10;1.00
10566;DHT22;5331;48.148;16.326;2023-03-01T06:40:26;1.10;1.00
10566;DHT22;5331;48.148;16.326;2023-03-01T06:42:53;1.10;1.00
10566;DHT22;5331;48.148;16.326;2023-03-01T06:45:20;1.20;1.00
10566;DHT22;5331;48.148;16.326;2023-03-01T06:47:47;1.20;1.00
10566;DHT22;5331;48.148;16.326;2023-03-01T06:50:15;1.20;1.00
10566;DHT22;5331;48.148;16.326;2023-03-01T06:52:43;1.30;1.00
10566;DHT22;5331;48.148;16.326;2023-03-01T06:55:10;1.30;1.00
10566;DHT22;5331;48.148;16.326;2023-03-01T06:57:39;1.40;1.00
10566;DHT22;5331;48.148;16.326;2023-03-01T07:00:07;1.40;1.00
10566;DHT22;5331;48.148;16.326;2023-03-01T07:02:34;1.50;1.00
10566;DHT22;5331;48.148;16.326;2023-03-01T07:05:01;1.50;1.00
10566;DHT22;5331;48.148;16.326;2023-03-01T07:07:28;1.50;1.00
10566;DHT22;5331;48.148;16.326;2023-03-01T07:09:54;1.50;1.00
10566;DHT22;5331;48.148;16.326;2023-03-01T07:12:21;1.60;1.00
10566;DHT22;5331;48.148;16.326;2023-03-01T07:14:50;1.60;1.00
10566;DHT22;5331;48.148;16.326;2023-03-01T07:17:16;1.70;1.00
10566;DHT22;5331;48.148;16.326;2023-03-01T07:19:44;1.70;1.00
10566;DHT22;5331;48.148;16.326;2023-03-01T07:22:11;1.80;1.00
10566;DHT22;5331;48.148;16.326;2023-03-01T07:24:38;1.80;1.00
10566;DHT22;5331;48.148;16.326;2023-03-01T07:27:04;1.90;1.00
10566;DHT22;5331;48.148;16.326;2023-03-01T07:29:31;2.00;1.00
10566;DHT22;5331;48.148;16.326;2023-03-01T07:32:00;2.00;1.00
10566;DHT22;5331;48.148;16.326;2023-03-01T07:34:26;2.10;1.00
10566;DHT22;5331;48.148;16.326;2023-03-01T07:36:53;2.10;1.00
10566;DHT22;5331;48.148;16.326;2023-03-01T07:39:20;2.10;1.00
10566;DHT22;5331;48.148;16.326;2023-03-01T07:41:48;2.20;1.00
10566;DHT22;5331;48.148;16.326;2023-03-01T07:44:15;2.30;1.00
10566;DHT22;5331;48.148;16.326;2023-03-01T07:46:43;2.30;1.00
10566;DHT22;5331;48.148;16.326;2023-03-01T07:49:11;2.40;1.00
10566;DHT22;5331;48.148;16.326;2023-03-01T07:51:38;2.40;1.00
10566;DHT22;5331;48.148;16.326;2023-03-01T07:54:05;2.40;1.00
10566;DHT22;5331;48.148;16.326;2023-03-01T07:56:32;2.50;1.00
10566;DHT22;5331;48.148;16.326;2023-03-01T07:58:59;2.50;1.00
10566;DHT22;5331;48.148;16.326;2023-03-01T08:01:26;2.50;1.00
10566;DHT22;5331;48.148;16.326;2023-03-01T08:03:53;2.50;1.00
10566;DHT22;5331;48.148;16.326;2023-03-01T08:06:21;2.50;1.00
10566;DHT22;5331;48.148;16.326;2023-03-01T08:08:48;2.50;1.00
10566;DHT22;5331;48.148;16.326;2023-03-01T08:11:15;2.60;1.00
10566;DHT22;5331;48.148;16.326;2023-03-01T08:13:43;2.70;1.00
10566;DHT22;5331;48.148;16.326;2023-03-01T08:16:12;2.70;1.00
10566;DHT22;5331;48.148;16.326;2023-03-01T08:18:39;2.70;1.00
10566;DHT22;5331;48.148;16.326;2023-03-01T08:21:07;2.90;1.00
10566;DHT22;5331;48.148;16.326;2023-03-01T08:23:36;3.00;1.00
10566;DHT22;5331;48.148;16.326;2023-03-01T08:26:05;3.10;1.00
10566;DHT22;5331;48.148;16.326;2023-03-01T08:28:32;3.20;1.00
10566;DHT22;5331;48.148;16.326;2023-03-01T08:30:59;3.20;1.00
10566;DHT22;5331;48.148;16.326;2023-03-01T08:33:26;3.30;1.00
10566;DHT22;5331;48.148;16.326;2023-03-01T08:36:02;3.40;1.00
10566;DHT22;5331;48.148;16.326;2023-03-01T08:38:29;3.50;1.00
10566;DHT22;5331;48.148;16.326;2023-03-01T08:40:59;3.70;1.00
10566;DHT22;5331;48.148;16.326;2023-03-01T08:43:26;3.80;1.00
10566;DHT22;5331;48.148;16.326;2023-03-01T08:45:53;4.00;1.00
10566;DHT22;5331;48.148;16.326;2023-03-01T08:48:20;4.10;1.00
10566;DHT22;5331;48.148;16.326;2023-03-01T08:50:47;4.30;1.00
10566;DHT22;5331;48.148;16.326;2023-03-01T08:53:13;4.30;1.00
10566;DHT22;5331;48.148;16.326;2023-03-01T08:55:40;4.30;1.00
10566;DHT22;5331;48.148;16.326;2023-03-01T08:58:09;4.50;1.00
10566;DHT22;5331;48.148;16.326;2023-03-01T09:00:36;4.30;1.00
10566;DHT22;5331;48.148;16.326;2023-03-01T09:05:31;4.40;1.00
10566;DHT22;5331;48.148;16.326;2023-03-01T09:07:58;4.60;1.00
10566;DHT22;5331;48.148;16.326;2023-03-01T09:10:25;4.80;1.00
10566;DHT22;5331;48.148;16.326;2023-03-01T09:12:52;4.80;1.00
10566;DHT22;5331;48.148;16.326;2023-03-01T09:15:20;4.80;1.00
10566;DHT22;5331;48.148;16.326;2023-03-01T09:17:47;4.90;1.00
10566;DHT22;5331;48.148;16.326;2023-03-01T09:20:14;4.80;1.00
10566;DHT22;5331;48.148;16.326;2023-03-01T09:22:41;4.80;1.00
10566;DHT22;5331;48.148;16.326;2023-03-01T09:25:09;4.80;1.00
10566;DHT22;5331;48.148;16.326;2023-03-01T09:27:36;4.90;1.00
10566;DHT22;5331;48.148;16.326;2023-03-01T09:30:04;4.90;1.00
10566;DHT22;5331;48.148;16.326;2023-03-01T09:32:32;4.80;1.00
10566;DHT22;5331;48.148;16.326;2023-03-01T09:34:59;4.70;1.00
10566;DHT22;5331;48.148;16.326;2023-03-01T09:37:31;4.70;1.00
10566;DHT22;5331;48.148;16.326;2023-03-01T09:39:58;4.80;1.00
10566;DHT22;5331;48.148;16.326;2023-03-01T09:42:25;4.70;1.00
10566;DHT22;5331;48.148;16.326;2023-03-01T09:44:57;4.80;1.00
10566;DHT22;5331;48.148;16.326;2023-03-01T09:47:28;4.80;1.00
10566;DHT22;5331;48.148;16.326;2023-03-01T09:50:04;4.70;1.00
10566;DHT22;5331;48.148;16.326;2023-03-01T09:52:38;4.70;1.00
10566;DHT22;5331;48.148;16.326;2023-03-01T09:55:11;4.70;1.00
10566;DHT22;5331;48.148;16.326;2023-03-01T09:57:47;4.70;1.00
10566;DHT22;5331;48.148;16.326;2023-03-01T10:00:36;4.70;1.00
10566;DHT22;5331;48.148;16.326;2023-03-01T10:03:12;4.70;1.00
10566;DHT22;5331;48.148;16.326;2023-03-01T10:05:49;4.80;1.00
10566;DHT22;5331;48.148;16.326;2023-03-01T10:08:33;5.00;1.00
10566;DHT22;5331;48.148;16.326;2023-03-01T10:11:03;5.20;1.00
10566;DHT22;5331;48.148;16.326;2023-03-01T10:13:37;5.30;1.00
10566;DHT22;5331;48.148;16.326;2023-03-01T10:16:12;5.40;1.00
10566;DHT22;5331;48.148;16.326;2023-03-01T10:18:40;5.50;1.00
10566;DHT22;5331;48.148;16.326;2023-03-01T10:21:14;5.40;1.00
10566;DHT22;5331;48.148;16.326;2023-03-01T10:23:42;5.40;1.00
10566;DHT22;5331;48.148;16.326;2023-03-01T10:26:25;5.50;1.00
10566;DHT22;5331;48.148;16.326;2023-03-01T10:29:00;5.70;1.00
10566;DHT22;5331;48.148;16.326;2023-03-01T10:31:36;5.90;1.00
10566;DHT22;5331;48.148;16.326;2023-03-01T10:34:08;6.30;1.00
10566;DHT22;5331;48.148;16.326;2023-03-01T10:36:38;6.50;1.00
10566;DHT22;5331;48.148;16.326;2023-03-01T10:39:13;6.60;1.00
10566;DHT22;5331;48.148;16.326;2023-03-01T10:41:53;6.40;1.00
10566;DHT22;5331;48.148;16.326;2023-03-01T10:44:36;6.40;1.00
10566;DHT22;5331;48.148;16.326;2023-03-01T10:47:03;6.60;1.00
10566;DHT22;5331;48.148;16.326;2023-03-01T10:49:31;6.60;1.00
10566;DHT22;5331;48.148;16.326;2023-03-01T10:52:15;6.70;1.00
10566;DHT22;5331;48.148;16.326;2023-03-01T10:54:52;6.80;1.00
10566;DHT22;5331;48.148;16.326;2023-03-01T10:57:37;6.70;1.00
10566;DHT22;5331;48.148;16.326;2023-03-01T11:00:20;6.80;1.00
10566;DHT22;5331;48.148;16.326;2023-03-01T11:02:50;6.90;1.00
10566;DHT22;5331;48.148;16.326;2023-03-01T11:05:21;7.10;1.00
10566;DHT22;5331;48.148;16.326;2023-03-01T11:07:53;7.20;1.00
10566;DHT22;5331;48.148;16.326;2023-03-01T11:10:23;7.30;1.00
10566;DHT22;5331;48.148;16.326;2023-03-01T11:12:51;7.30;1.00
10566;DHT22;5331;48.148;16.326;2023-03-01T11:15:26;7.30;1.00
10566;DHT22;5331;48.148;16.326;2023-03-01T11:17:55;7.40;1.00
10566;DHT22;5331;48.148;16.326;2023-03-01T11:20:29;7.50;1.00
10566;DHT22;5331;48.148;16.326;2023-03-01T11:23:01;7.40;1.00
10566;DHT22;5331;48.148;16.326;2023-03-01T11:25:34;7.60;1.00
10566;DHT22;5331;48.148;16.326;2023-03-01T11:28:04;7.70;1.00
10566;DHT22;5331;48.148;16.326;2023-03-01T11:30:36;8.00;1.00
10566;DHT22;5331;48.148;16.326;2023-03-01T11:33:13;8.30;1.00
10566;DHT22;5331;48.148;16.326;2023-03-01T11:35:46;8.70;1.00
10566;DHT22;5331;48.148;16.326;2023-03-01T11:38:22;8.90;1.00
10566;DHT22;5331;48.148;16.326;2023-03-01T11:40:52;8.80;1.00
10566;DHT22;5331;48.148;16.326;2023-03-01T11:43:28;8.70;1.00
10566;DHT22;5331;48.148;16.326;2023-03-01T11:46:40;8.50;1.00
10566;DHT22;5331;48.148;16.326;2023-03-01T11:49:49;8.20;1.00
10566;DHT22;5331;48.148;16.326;2023-03-01T11:52:25;8.00;1.00
10566;DHT22;5331;48.148;16.326;2023-03-01T11:55:08;8.00;1.00
10566;DHT22;5331;48.148;16.326;2023-03-01T11:57:51;7.90;1.00
10566;DHT22;5331;48.148;16.326;2023-03-01T12:00:31;7.90;1.00
10566;DHT22;5331;48.148;16.326;2023-03-01T12:03:23;7.80;1.00
10566;DHT22;5331;48.148;16.326;2023-03-01T12:06:10;7.90;1.00
10566;DHT22;5331;48.148;16.326;2023-03-01T12:08:41;7.80;1.00
10566;DHT22;5331;48.148;16.326;2023-03-01T12:11:20;7.90;1.00
10566;DHT22;5331;48.148;16.326;2023-03-01T12:17:03;8.00;1.00
10566;DHT22;5331;48.148;16.326;2023-03-01T12:20:01;8.20;1.00
10566;DHT22;5331;48.148;16.326;2023-03-01T12:22:37;8.30;1.00
10566;DHT22;5331;48.148;16.326;2023-03-01T12:25:18;8.20;1.00
10566;DHT22;5331;48.148;16.326;2023-03-01T12:33:47;8.00;1.00
10566;DHT22;5331;48.148;16.326;2023-03-01T12:39:31;8.00;1.00
10566;DHT22;5331;48.148;16.326;2023-03-01T12:42:05;7.90;1.00
10566;DHT22;5331;48.148;16.326;2023-03-01T12:44:52;8.00;1.00
10566;DHT22;5331;48.148;16.326;2023-03-01T12:47:36;8.10;1.00
10566;DHT22;5331;48.148;16.326;2023-03-01T12:50:12;8.10;1.00
10566;DHT22;5331;48.148;16.326;2023-03-01T12:52:43;8.00;1.00
10566;DHT22;5331;48.148;16.326;2023-03-01T12:55:21;8.10;1.00
10566;DHT22;5331;48.148;16.326;2023-03-01T12:58:01;8.20;1.00
10566;DHT22;5331;48.148;16.326;2023-03-01T13:00:36;8.20;1.00
10566;DHT22;5331;48.148;16.326;2023-03-01T13:03:14;8.10;1.00
10566;DHT22;5331;48.148;16.326;2023-03-01T13:05:56;8.10;1.00
10566;DHT22;5331;48.148;16.326;2023-03-01T13:08:31;8.10;1.00
10566;DHT22;5331;48.148;16.326;2023-03-01T13:11:01;8.00;1.00
10566;DHT22;5331;48.148;16.326;2023-03-01T13:13:29;7.90;1.00
10566;DHT22;5331;48.148;16.326;2023-03-01T13:16:38;8.00;1.00
10566;DHT22;5331;48.148;16.326;2023-03-01T13:19:13;8.10;1.00
10566;DHT22;5331;48.148;16.326;2023-03-01T13:21:42;8.30;1.00
10566;DHT22;5331;48.148;16.326;2023-03-01T13:24:24;8.40;1.00
10566;DHT22;5331;48.148;16.326;2023-03-01T13:27:10;8.30;1.00
10566;DHT22;5331;48.148;16.326;2023-03-01T13:29:45;8.40;1.00
10566;DHT22;5331;48.148;16.326;2023-03-01T13:32:24;8.50;1.00
10566;DHT22;5331;48.148;16.326;2023-03-01T13:34:55;8.60;1.00
10566;DHT22;5331;48.148;16.326;2023-03-01T13:37:31;8.70;1.00
10566;DHT22;5331;48.148;16.326;2023-03-01T13:40:00;8.70;1.00
10566;DHT22;5331;48.148;16.326;2023-03-01T13:42:39;8.70;1.00
10566;DHT22;5331;48.148;16.326;2023-03-01T13:45:20;8.60;1.00
10566;DHT22;5331;48.148;16.326;2023-03-01T13:47:54;8.60;1.00
10566;DHT22;5331;48.148;16.326;2023-03-01T13:50:25;8.50;1.00
10566;DHT22;5331;48.148;16.326;2023-03-01T13:52:57;8.50;1.00
10566;DHT22;5331;48.148;16.326;2023-03-01T13:55:30;8.60;1.00
10566;DHT22;5331;48.148;16.326;2023-03-01T13:58:05;8.60;1.00
10566;DHT22;5331;48.148;16.326;2023-03-01T14:00:41;8.70;1.00
10566;DHT22;5331;48.148;16.326;2023-03-01T14:03:14;8.60;1.00
10566;DHT22;5331;48.148;16.326;2023-03-01T14:05:43;8.60;1.00
10566;DHT22;5331;48.148;16.326;2023-03-01T14:08:21;8.60;1.00
10566;DHT22;5331;48.148;16.326;2023-03-01T14:11:02;8.70;1.00
10566;DHT22;5331;48.148;16.326;2023-03-01T14:13:44;8.70;1.00
10566;DHT22;5331;48.148;16.326;2023-03-01T14:16:23;8.60;1.00
10566;DHT22;5331;48.148;16.326;2023-03-01T14:19:02;8.50;1.00
10566;DHT22;5331;48.148;16.326;2023-03-01T14:21:34;8.50;1.00
10566;DHT22;5331;48.148;16.326;2023-03-01T14:24:02;8.50;1.00
10566;DHT22;5331;48.148;16.326;2023-03-01T14:26:37;8.50;1.00
10566;DHT22;5331;48.148;16.326;2023-03-01T14:29:04;8.50;1.00
10566;DHT22;5331;48.148;16.326;2023-03-01T14:31:36;8.40;1.00
10566;DHT22;5331;48.148;16.326;2023-03-01T14:34:05;8.40;1.00
10566;DHT22;5331;48.148;16.326;2023-03-01T14:36:33;8.30;1.00
10566;DHT22;5331;48.148;16.326;2023-03-01T14:39:02;8.30;1.00
10566;DHT22;5331;48.148;16.326;2023-03-01T14:41:42;8.40;1.00
10566;DHT22;5331;48.148;16.326;2023-03-01T14:44:16;8.40;1.00
10566;DHT22;5331;48.148;16.326;2023-03-01T14:46:46;8.50;1.00
10566;DHT22;5331;48.148;16.326;2023-03-01T14:49:17;8.40;1.00
10566;DHT22;5331;48.148;16.326;2023-03-01T14:51:49;8.40;1.00
10566;DHT22;5331;48.148;16.326;2023-03-01T14:54:21;8.20;1.00
10566;DHT22;5331;48.148;16.326;2023-03-01T14:56:51;8.20;1.00
10566;DHT22;5331;48.148;16.326;2023-03-01T14:59:24;8.10;1.00
10566;DHT22;5331;48.148;16.326;2023-03-01T15:01:53;8.20;1.00
10566;DHT22;5331;48.148;16.326;2023-03-01T15:04:23;8.10;1.00
10566;DHT22;5331;48.148;16.326;2023-03-01T15:06:52;8.20;1.00
10566;DHT22;5331;48.148;16.326;2023-03-01T15:09:19;8.20;1.00
10566;DHT22;5331;48.148;16.326;2023-03-01T15:11:47;8.20;1.00
10566;DHT22;5331;48.148;16.326;2023-03-01T15:14:38;8.10;1.00
10566;DHT22;5331;48.148;16.326;2023-03-01T15:17:22;8.10;1.00
10566;DHT22;5331;48.148;16.326;2023-03-01T15:19:55;8.10;1.00
10566;DHT22;5331;48.148;16.326;2023-03-01T15:22:23;8.10;1.00
10566;DHT22;5331;48.148;16.326;2023-03-01T15:24:51;8.10;1.00
10566;DHT22;5331;48.148;16.326;2023-03-01T15:27:20;8.00;1.00
10566;DHT22;5331;48.148;16.326;2023-03-01T15:29:49;8.10;1.00
10566;DHT22;5331;48.148;16.326;2023-03-01T15:32:26;8.10;1.00
10566;DHT22;5331;48.148;16.326;2023-03-01T15:34:57;8.00;1.00
10566;DHT22;5331;48.148;16.326;2023-03-01T15:37:38;8.00;1.00
10566;DHT22;5331;48.148;16.326;2023-03-01T15:40:18;7.90;1.00
10566;DHT22;5331;48.148;16.326;2023-03-01T15:42:47;7.90;1.00
10566;DHT22;5331;48.148;16.326;2023-03-01T15:45:22;7.90;1.00
10566;DHT22;5331;48.148;16.326;2023-03-01T15:47:52;7.80;1.00
10566;DHT22;5331;48.148;16.326;2023-03-01T15:50:22;7.80;1.00
10566;DHT22;5331;48.148;16.326;2023-03-01T15:52:50;7.80;1.00
10566;DHT22;5331;48.148;16.326;2023-03-01T15:55:20;7.80;1.00
10566;DHT22;5331;48.148;16.326;2023-03-01T15:57:48;7.80;1.00
10566;DHT22;5331;48.148;16.326;2023-03-01T16:00:17;7.70;1.00
10566;DHT22;5331;48.148;16.326;2023-03-01T16:02:45;7.70;1.00
10566;DHT22;5331;48.148;16.326;2023-03-01T16:05:22;7.60;1.00
10566;DHT22;5331;48.148;16.326;2023-03-01T16:07:51;7.60;1.00
10566;DHT22;5331;48.148;16.326;2023-03-01T16:10:18;7.60;1.00
10566;DHT22;5331;48.148;16.326;2023-03-01T16:12:45;7.50;1.00
10566;DHT22;5331;48.148;16.326;2023-03-01T16:15:17;7.50;1.00
10566;DHT22;5331;48.148;16.326;2023-03-01T16:17:44;7.50;1.00
10566;DHT22;5331;48.148;16.326;2023-03-01T16:20:12;7.50;1.00
10566;DHT22;5331;48.148;16.326;2023-03-01T16:22:43;7.50;1.00
10566;DHT22;5331;48.148;16.326;2023-03-01T16:25:10;7.50;1.00
10566;DHT22;5331;48.148;16.326;2023-03-01T16:27:38;7.40;1.00
10566;DHT22;5331;48.148;16.326;2023-03-01T16:30:09;7.40;1.00
10566;DHT22;5331;48.148;16.326;2023-03-01T16:32:37;7.40;1.00
10566;DHT22;5331;48.148;16.326;2023-03-01T16:35:05;7.30;1.00
10566;DHT22;5331;48.148;16.326;2023-03-01T16:37:35;7.30;1.00
10566;DHT22;5331;48.148;16.326;2023-03-01T16:40:14;7.30;1.00